Time;durP1;ratioP1;P1;durP2;ratioP2;P2;SDS_P1;SDS_P2;PMS_P1;PMS_P2;Temp;Humidity;BMP_temperature;BMP_pressure;BME280_temperature;BME280_humidity;BME280_pressure;Samples;Min_cycle;Max_cycle;Signal;HPM_P1;HPM_P2
2021/11/30 09:54:49;;;;;;;14.90;11.33;;;;;;;5.39;70.35;99553.47;1383118;87;20284;-93
2021/11/30 09:57:22;;;;;;;14.47;11.60;;;;;;;5.52;70.98;99557.63;1355950;88;23439;31
2021/11/30 09:59:54;;;;;;;12.30;10.33;;;;;;;5.74;71.55;99548.66;1369202;88;21722;-96
2021/11/30 10:02:20;;;;;;;18.73;9.97;;;;;;;6.14;70.63;99536.71;1372031;87;23439;31
2021/11/30 10:04:49;;;;;;;15.57;10.57;;;;;;;6.18;69.16;99542.02;1372323;87;21701;-93
2021/11/30 10:07:40;;;;;;;17.23;12.37;;;;;;;6.17;68.61;99530.35;1365358;87;25346;-96
2021/11/30 10:10:15;;;;;;;18.07;12.63;;;;;;;6.22;70.08;99526.82;1366990;86;21663;31
2021/11/30 10:15:13;;;;;;;21.60;17.42;;;;;;;5.06;71.81;99524.45;1327202;93;21393;-90
2021/11/30 10:17:40;;;;;;;24.33;18.63;;;;;;;4.89;73.28;99522.02;1321325;93;22479;-91
2021/11/30 10:20:13;;;;;;;22.50;16.87;;;;;;;5.00;74.21;99520.23;1319340;93;21445;-91
2021/11/30 10:22:54;;;;;;;23.97;18.17;;;;;;;5.14;73.47;99511.99;1321064;93;21326;-92
2021/11/30 10:25:29;;;;;;;19.17;14.93;;;;;;;5.48;73.72;99514.26;1322626;93;21416;-91
2021/11/30 10:28:04;;;;;;;20.20;15.03;;;;;;;5.74;72.49;99516.67;1321930;93;21502;-90
2021/11/30 10:30:36;;;;;;;19.17;14.53;;;;;;;5.83;72.18;99510.58;1317775;93;21511;-90
2021/11/30 10:33:13;;;;;;;17.83;12.93;;;;;;;5.87;70.33;99509.84;1315554;93;21437;-91
2021/11/30 10:35:40;;;;;;;18.67;14.83;;;;;;;6.15;71.43;99512.08;1318243;93;21459;-91
2021/11/30 10:38:07;;;;;;;16.90;13.10;;;;;;;6.23;69.22;99508.76;1319097;93;21481;-88
2021/11/30 10:40:38;;;;;;;18.33;14.47;;;;;;;6.42;70.83;99500.00;1318928;93;21364;-90
2021/11/30 10:43:11;;;;;;;20.57;14.53;;;;;;;6.65;70.17;99492.58;1323159;93;21392;-90
2021/11/30 10:45:48;;;;;;;18.90;13.77;;;;;;;6.75;68.42;99488.09;1320944;93;22294;-91
2021/11/30 10:48:19;;;;;;;20.43;15.13;;;;;;;6.81;68.04;99486.68;1323024;93;21570;-90
2021/11/30 10:50:51;;;;;;;21.27;14.93;;;;;;;6.77;68.54;99480.40;1321009;93;21673;-92
2021/11/30 10:53:30;;;;;;;16.73;12.80;;;;;;;6.65;67.29;99476.31;1318632;93;21497;-90
2021/11/30 10:56:04;;;;;;;15.93;12.20;;;;;;;6.52;67.22;99488.95;1315745;93;22337;-91
2021/11/30 10:58:38;;;;;;;16.80;12.23;;;;;;;6.73;68.40;99478.20;1320425;93;21518;-91
2021/11/30 11:01:15;;;;;;;18.23;11.80;;;;;;;6.95;68.35;99470.41;1313073;93;21664;-93
2021/11/30 11:03:42;;;;;;;13.10;9.03;;;;;;;7.09;65.10;99462.01;1323505;93;21459;-90
2021/11/30 11:09:06;;;;;;;12.03;8.67;;;;;;;7.11;59.58;99460.55;1317251;93;22278;-91
2021/11/30 11:11:41;;;;;;;10.70;7.73;;;;;;;7.18;60.45;99458.48;1317058;93;21378;-91
2021/11/30 11:14:21;;;;;;;9.53;8.07;;;;;;;7.26;57.67;99456.91;1318960;93;21385;-91
2021/11/30 11:16:53;;;;;;;12.57;8.20;;;;;;;7.20;59.03;99452.58;1305655;94;21584;-91
2021/11/30 11:19:46;;;;;;;13.17;9.40;;;;;;;7.34;59.76;99446.47;1299815;95;21474;-90
2021/11/30 11:22:22;;;;;;;9.70;6.80;;;;;;;7.30;56.03;99448.55;1317693;93;22280;-92
2021/11/30 11:24:51;;;;;;;9.17;7.30;;;;;;;7.00;55.16;99437.91;1318894;93;21540;-91
2021/11/30 11:27:37;;;;;;;9.83;8.13;;;;;;;7.11;54.21;99439.02;1319039;93;21430;-92
2021/11/30 11:30:11;;;;;;;8.67;7.00;;;;;;;7.24;56.78;99443.40;1316654;93;21437;-91
2021/11/30 11:32:38;;;;;;;11.33;7.73;;;;;;;7.14;54.37;99432.62;1322105;93;21474;-93
2021/11/30 11:35:07;;;;;;;8.67;6.70;;;;;;;7.20;55.38;99431.53;1321952;93;21407;-91
2021/11/30 11:37:34;;;;;;;11.63;8.13;;;;;;;7.41;56.54;99429.90;1322878;93;21430;-94
2021/11/30 11:40:02;;;;;;;6.27;5.63;;;;;;;7.61;56.85;99433.19;1319628;93;21724;-91
2021/11/30 11:42:30;;;;;;;9.53;6.83;;;;;;;7.65;55.59;99424.02;1316186;93;22286;-91
2021/11/30 11:44:58;;;;;;;10.23;6.53;;;;;;;7.63;54.40;99419.39;1319043;94;21445;-89
2021/11/30 11:47:26;;;;;;;9.83;8.07;;;;;;;7.60;55.39;99412.30;1322923;93;22441;-90
2021/11/30 11:49:56;;;;;;;8.27;6.17;;;;;;;7.67;54.08;99408.88;1318905;94;22419;-91
2021/11/30 11:52:30;;;;;;;9.10;7.37;;;;;;;7.66;53.39;99419.58;1318112;94;21372;-88
2021/11/30 11:55:08;;;;;;;9.83;7.47;;;;;;;7.36;55.07;99418.99;1321478;93;21445;-91
2021/11/30 11:57:35;;;;;;;9.40;7.30;;;;;;;7.14;55.62;99415.52;1320889;93;22353;-91
2021/11/30 12:00:22;;;;;;;10.20;7.60;;;;;;;7.04;55.88;99416.89;1322237;93;21492;-93
2021/11/30 12:02:52;;;;;;;8.93;7.53;;;;;;;7.14;56.64;99415.03;1317215;93;22316;-91
2021/11/30 12:05:42;;;;;;;11.08;7.42;;;;;;;7.11;56.51;99400.86;1320408;93;21356;-91
2021/11/30 12:08:33;;;;;;;10.20;7.40;;;;;;;7.09;56.02;99405.44;1318366;93;21474;-92
2021/11/30 12:11:03;;;;;;;9.70;7.75;;;;;;;7.12;56.52;99393.30;1317962;93;21536;-92
2021/11/30 12:13:30;;;;;;;9.57;6.87;;;;;;;7.28;57.08;99402.30;1316740;94;21348;-91
2021/11/30 12:16:09;;;;;;;7.30;5.77;;;;;;;7.13;56.47;99387.05;1316373;94;22406;-91
2021/11/30 12:18:43;;;;;;;7.57;5.97;;;;;;;7.12;56.55;99387.21;1325068;92;21672;-91
2021/11/30 12:21:23;;;;;;;14.33;7.57;;;;;;;6.99;57.63;99375.27;1332774;92;21339;-92
2021/11/30 12:23:57;;;;;;;9.00;6.83;;;;;;;6.76;58.47;99375.34;1328046;92;21458;-90
2021/11/30 12:26:35;;;;;;;8.03;6.00;;;;;;;6.73;59.05;99369.92;1331098;92;22551;-89
2021/11/30 12:29:24;;;;;;;7.40;5.60;;;;;;;6.31;59.56;99382.74;1329581;92;21332;-90
2021/11/30 12:31:56;;;;;;;8.27;6.33;;;;;;;5.70;61.24;99381.41;1327049;92;21310;-90
2021/11/30 12:34:36;;;;;;;10.13;6.03;;;;;;;5.46;62.34;99373.16;1330976;92;21501;-90
2021/11/30 12:37:12;;;;;;;7.77;6.60;;;;;;;5.22;63.51;99365.24;1330788;93;21427;-91
2021/11/30 12:40:12;;;;;;;12.10;6.60;;;;;;;5.20;63.62;99358.81;1326301;92;21384;-90
2021/11/30 12:42:51;;;;;;;6.90;5.47;;;;;;;5.29;64.12;99358.95;1327330;92;21399;-92
2021/11/30 12:45:44;;;;;;;11.93;6.13;;;;;;;5.26;63.79;99362.67;1331194;92;21539;-91
2021/11/30 12:48:36;;;;;;;8.83;5.23;;;;;;;5.18;63.98;99362.56;1333253;93;21347;-92
2021/11/30 12:51:27;;;;;;;9.60;5.23;;;;;;;5.06;63.91;99345.30;1327350;91;21457;-93
2021/11/30 12:53:58;;;;;;;6.00;4.58;;;;;;;5.12;64.37;99352.60;1329924;92;21406;-90
2021/11/30 12:56:55;;;;;;;;;;;;;;;5.19;64.41;99349.30;1333550;92;22435;-89
2021/11/30 12:59:45;;;;;;;12.40;6.33;;;;;;;5.23;64.82;99345.91;1331758;92;20253;-92
2021/11/30 13:02:30;;;;;;;27.98;7.55;;;;;;;5.10;65.37;99344.89;1323756;92;21429;-92
2021/11/30 13:05:21;;;;;;;16.70;9.93;;;;;;;4.99;65.53;99342.41;1331541;92;22433;-95
2021/11/30 13:07:56;;;;;;;8.40;6.50;;;;;;;4.97;65.86;99347.77;1343615;92;21494;-95
2021/11/30 13:10:33;;;;;;;8.13;4.73;;;;;;;5.08;65.84;99343.38;1345160;91;21368;-96
2021/11/30 13:13:08;;;;;;;8.53;5.80;;;;;;;5.11;64.34;99346.53;1326593;91;21540;-85
2021/11/30 13:15:58;;;;;;;7.77;4.83;;;;;;;5.26;64.15;99344.31;1316866;93;21667;-87
2021/11/30 13:18:29;;;;;;;8.17;6.00;;;;;;;5.28;63.08;99338.45;1320380;93;22412;-86
2021/11/30 13:20:58;;;;;;;10.80;7.23;;;;;;;5.20;64.02;99339.63;1318865;93;21379;-86
2021/11/30 13:23:28;;;;;;;7.70;5.40;;;;;;;5.13;65.10;99341.98;1324755;93;21475;-86
2021/11/30 13:25:56;;;;;;;11.97;6.00;;;;;;;5.02;65.53;99343.44;1316844;92;21474;-86
2021/11/30 13:28:28;;;;;;;8.13;5.70;;;;;;;4.95;66.47;99336.62;1327107;92;22470;-86
2021/11/30 13:30:59;;;;;;;6.97;5.10;;;;;;;4.95;66.94;99326.12;1335174;92;21532;-85
2021/11/30 13:33:31;;;;;;;10.08;6.53;;;;;;;4.87;66.82;99330.41;1333266;91;21517;-85
2021/11/30 13:36:04;;;;;;;8.40;5.63;;;;;;;4.74;67.29;99321.48;1311290;94;21391;-85
2021/11/30 13:38:38;;;;;;;11.90;7.00;;;;;;;4.67;67.61;99330.87;1319470;93;22005;-85
2021/11/30 13:41:10;;;;;;;9.73;6.20;;;;;;;4.58;68.53;99323.84;1309838;93;21406;-87
2021/11/30 13:43:45;;;;;;;10.10;7.13;;;;;;;4.57;68.72;99312.50;1315758;93;21303;-85
2021/11/30 13:46:19;;;;;;;9.93;6.63;;;;;;;4.61;68.69;99312.59;1312939;93;21347;-85
2021/11/30 13:48:50;;;;;;;11.63;7.20;;;;;;;4.81;68.62;99305.57;1311937;93;22554;-85
2021/11/30 13:51:29;;;;;;;;;;;;;;;4.96;67.48;99310.73;1317340;93;21483;-84
2021/11/30 13:54:08;;;;;;;7.07;4.20;;;;;;;4.85;65.44;99304.31;1314626;93;20396;-86
2021/11/30 13:56:42;;;;;;;5.37;3.80;;;;;;;4.77;63.78;99288.45;1312765;93;21408;-87
2021/11/30 13:59:13;;;;;;;6.33;4.37;;;;;;;4.73;63.22;99289.70;1315109;94;21423;-88
2021/11/30 14:04:15;;;;;;;5.20;3.60;;;;;;;4.59;61.97;99280.45;1320724;93;22389;-88
2021/11/30 14:06:57;;;;;;;6.97;3.20;;;;;;;4.49;61.93;99277.83;1319260;92;22936;-87
2021/11/30 14:09:34;;;;;;;5.13;3.90;;;;;;;4.50;62.42;99289.95;1319252;93;21371;-88
2021/11/30 14:12:10;;;;;;;7.70;4.83;;;;;;;4.40;62.45;99278.66;1314148;93;21591;-87
2021/11/30 14:14:44;;;;;;;6.33;4.43;;;;;;;4.28;62.72;99278.41;1314795;93;22552;-88
2021/11/30 14:17:31;;;;;;;8.13;4.37;;;;;;;4.18;63.58;99272.34;1323977;92;21429;-89
2021/11/30 14:19:59;;;;;;;6.27;4.00;;;;;;;4.06;64.76;99268.52;1317162;93;21341;-84
2021/11/30 14:22:36;;;;;;;6.90;4.80;;;;;;;3.98;65.31;99269.67;1313316;93;21349;-83
2021/11/30 14:25:22;;;;;;;5.63;3.97;;;;;;;3.90;65.96;99270.81;1314711;92;21481;-83
2021/11/30 14:27:59;;;;;;;9.60;5.30;;;;;;;3.67;66.69;99264.13;1312997;93;21342;-82
2021/11/30 14:30:38;;;;;;;6.10;4.60;;;;;;;3.63;67.17;99274.03;1327832;92;21362;-82
2021/11/30 14:33:12;;;;;;;8.83;5.60;;;;;;;3.63;67.17;99274.03;1319598;92;21429;-82
2021/11/30 14:35:55;;;;;;;8.97;5.60;;;;;;;3.59;66.93;99257.75;1315380;93;23200;-82
2021/11/30 14:38:35;;;;;;;11.03;6.67;;;;;;;3.53;66.79;99257.45;1309826;94;22092;-83
2021/11/30 14:41:07;;;;;;;7.63;5.43;;;;;;;3.44;66.63;99253.83;1313421;93;23077;-82
2021/11/30 14:43:36;;;;;;;8.43;5.77;;;;;;;3.39;66.35;99260.78;1308737;93;22095;-82
2021/11/30 14:46:03;;;;;;;9.00;5.00;;;;;;;3.35;66.29;99254.63;1316451;93;22129;-82
2021/11/30 14:48:39;;;;;;;6.33;4.90;;;;;;;3.28;65.84;99265.23;1313721;93;22096;-83
2021/11/30 14:51:14;;;;;;;7.03;4.87;;;;;;;3.20;65.51;99255.45;1316426;93;22072;-83
2021/11/30 14:53:47;;;;;;;7.60;4.50;;;;;;;3.15;65.66;99254.52;1316229;94;22117;-85
2021/11/30 14:56:27;;;;;;;10.03;5.53;;;;;;;3.09;65.33;99264.18;1315598;94;22102;-82
2021/11/30 14:58:56;;;;;;;7.97;5.60;;;;;;;3.07;65.78;99250.88;1318475;93;23220;-82
2021/11/30 15:01:27;;;;;;;9.53;5.97;;;;;;;3.01;65.80;99256.14;1317361;93;22169;-85
2021/11/30 15:04:04;;;;;;;11.13;5.67;;;;;;;2.96;65.92;99250.95;1314888;94;22288;-86
2021/11/30 15:06:48;;;;;;;11.33;6.17;;;;;;;2.92;66.01;99249.08;1317678;93;22059;-86
2021/11/30 15:09:22;;;;;;;9.40;6.00;;;;;;;2.89;65.68;99240.19;1314975;93;22230;-85
2021/11/30 15:12:00;;;;;;;9.33;5.83;;;;;;;2.86;65.58;99254.81;1304721;93;22103;-86
2021/11/30 15:14:39;;;;;;;18.57;9.50;;;;;;;2.87;65.45;99247.31;1319840;93;23816;-86
2021/11/30 15:17:13;;;;;;;12.20;7.43;;;;;;;2.85;65.50;99238.77;1309194;93;22207;-86
2021/11/30 15:19:47;;;;;;;19.00;9.67;;;;;;;2.85;66.47;99242.69;1327203;92;22088;-86
2021/11/30 15:22:26;;;;;;;11.70;6.37;;;;;;;2.85;66.47;99242.69;1328709;92;22061;-86
2021/11/30 15:25:02;;;;;;;9.70;6.43;;;;;;;2.81;67.37;99239.50;1332735;91;22142;-86
2021/11/30 15:27:34;;;;;;;10.40;6.80;;;;;;;2.81;67.37;99239.50;1330953;91;22139;-84
2021/11/30 15:30:09;;;;;;;12.00;7.77;;;;;;;2.81;67.54;99244.73;1313327;92;22122;-87
2021/11/30 15:32:37;;;;;;;9.23;7.00;;;;;;;2.78;68.39;99250.21;1315927;92;22975;-87
2021/11/30 15:35:09;;;;;;;16.63;9.03;;;;;;;2.78;68.73;99250.47;1305487;94;22253;-85
2021/11/30 15:37:37;;;;;;;12.97;8.03;;;;;;;2.75;69.29;99250.47;1305982;94;22062;-85
2021/11/30 15:40:06;;;;;;;16.00;8.40;;;;;;;2.76;68.66;99229.08;1329600;92;22089;-87
2021/11/30 15:42:33;;;;;;;12.13;8.07;;;;;;;2.73;68.50;99201.91;1304126;94;22029;-84
2021/11/30 15:45:00;;;;;;;9.87;7.00;;;;;;;2.74;68.81;99238.37;1324120;92;22138;-84
2021/11/30 15:47:27;;;;;;;11.77;6.77;;;;;;;2.74;68.81;99238.37;1338702;92;23756;-87
2021/11/30 15:49:55;;;;;;;12.27;8.10;;;;;;;2.76;68.79;99244.27;1328666;92;22083;-84
2021/11/30 15:52:23;;;;;;;11.50;6.43;;;;;;;2.76;68.79;99244.27;1327821;92;22151;-86
2021/11/30 15:54:50;;;;;;;10.83;5.77;;;;;;;2.83;69.20;99235.47;1328819;92;23161;-86
2021/11/30 15:59:59;;;;;;;8.23;6.27;;;;;;;2.85;69.52;99240.07;1324416;92;22071;-84
2021/11/30 16:02:29;;;;;;;17.13;10.50;;;;;;;2.87;69.65;99239.47;1324371;92;22211;-86
2021/11/30 16:05:00;;;;;;;25.27;12.20;;;;;;;2.86;70.06;99240.44;1327694;92;22140;-85
2021/11/30 16:07:29;;;;;;;47.80;20.10;;;;;;;2.86;70.06;99240.44;1326729;92;21896;-85
2021/11/30 16:09:59;;;;;;;24.40;13.53;;;;;;;2.88;70.16;99242.45;1328429;92;21360;-85
2021/11/30 16:12:27;;;;;;;11.67;7.30;;;;;;;2.88;70.56;99238.54;1319784;92;22124;-86
2021/11/30 16:14:54;;;;;;;11.63;6.73;;;;;;;2.89;70.80;99244.11;1325597;92;22295;-85
2021/11/30 16:17:21;;;;;;;10.93;6.93;;;;;;;2.86;70.92;99226.78;1327646;92;22078;-87
2021/11/30 16:19:50;;;;;;;9.83;5.80;;;;;;;2.88;70.70;99226.78;1310194;92;22951;-86
2021/11/30 16:22:18;;;;;;;9.77;6.43;;;;;;;2.92;70.66;99220.33;1326579;92;23729;-85
2021/11/30 16:24:52;;;;;;;10.87;5.20;;;;;;;2.94;70.85;99206.66;1320269;92;22285;-85
2021/11/30 16:27:14;;;;;;;8.77;5.17;;;;;;;2.94;70.59;99202.73;1297037;94;22160;-85
2021/11/30 16:29:41;;;;;;;6.50;4.30;;;;;;;2.94;70.14;99203.56;1315917;93;22233;-87
2021/11/30 16:32:09;;;;;;;7.27;4.50;;;;;;;2.96;70.06;99201.28;1320876;93;22159;-86
2021/11/30 16:34:36;;;;;;;6.53;3.90;;;;;;;2.99;69.89;99201.85;1298269;93;22275;-87
2021/11/30 16:37:05;;;;;;;6.50;3.87;;;;;;;3.00;69.04;99204.02;1302060;95;21877;-87
2021/11/30 16:39:32;;;;;;;5.63;3.77;;;;;;;3.04;69.48;99191.02;1307566;93;22335;-88
2021/11/30 16:41:59;;;;;;;5.27;3.60;;;;;;;3.05;69.05;99186.98;1319199;92;23122;-88
2021/11/30 16:44:27;;;;;;;11.03;4.43;;;;;;;3.04;68.93;99198.38;1324236;92;22187;-87
2021/11/30 16:46:54;;;;;;;5.83;3.50;;;;;;;3.09;68.98;99189.67;1326302;92;22209;-87
2021/11/30 16:49:21;;;;;;;7.70;4.37;;;;;;;3.12;68.68;99181.56;1330364;92;23119;-87
2021/11/30 16:51:51;;;;;;;8.07;4.73;;;;;;;3.11;68.46;99183.84;1327786;91;22211;-85
2021/11/30 16:54:19;;;;;;;6.90;4.10;;;;;;;3.11;68.46;99183.84;1321793;91;22257;-87
2021/11/30 16:56:46;;;;;;;6.97;4.03;;;;;;;3.12;68.58;99176.34;1304915;94;22120;-83
2021/11/30 16:59:14;;;;;;;7.63;4.07;;;;;;;3.11;68.43;99174.69;1315314;93;22114;-89
2021/11/30 17:01:42;;;;;;;4.77;3.57;;;;;;;3.08;68.60;99159.27;1314290;93;22137;-87
2021/11/30 17:04:10;;;;;;;10.23;4.17;;;;;;;3.10;68.99;99155.20;1319871;93;22766;-87
2021/11/30 17:06:38;;;;;;;6.80;4.13;;;;;;;3.08;68.96;99151.42;1315919;93;22174;-87
2021/11/30 17:09:06;;;;;;;7.50;4.67;;;;;;;3.10;69.19;99145.56;1301740;93;22165;-87
2021/11/30 17:11:34;;;;;;;6.73;4.50;;;;;;;3.07;69.29;99145.83;1304970;93;22098;-86
2021/11/30 17:14:03;;;;;;;5.83;4.60;;;;;;;3.06;69.43;99142.06;1299982;94;22173;-87
2021/11/30 17:16:31;;;;;;;6.63;4.00;;;;;;;3.07;69.08;99136.69;1303142;94;22180;-89
2021/11/30 17:18:59;;;;;;;5.73;4.43;;;;;;;3.07;68.75;99131.94;1303970;94;22136;-87
2021/11/30 17:21:26;;;;;;;6.93;3.97;;;;;;;3.07;69.04;99126.71;1304693;93;22943;-88
2021/11/30 17:23:56;;;;;;;6.77;4.70;;;;;;;3.03;68.93;99120.10;1281840;95;22125;-88
2021/11/30 17:26:27;;;;;;;6.90;4.50;;;;;;;3.08;69.37;99134.89;1325039;92;22085;-88
2021/11/30 17:28:55;;;;;;;8.50;5.13;;;;;;;3.06;69.47;99125.06;1306529;94;22114;-86
2021/11/30 17:31:23;;;;;;;11.70;7.17;;;;;;;3.03;69.77;99122.23;1326215;92;23191;-87
2021/11/30 17:33:51;;;;;;;7.70;4.90;;;;;;;3.02;69.60;99127.58;1326328;92;22145;-86
2021/11/30 17:36:18;;;;;;;8.00;5.33;;;;;;;2.97;70.13;99121.45;1327322;92;22152;-87
2021/11/30 17:38:45;;;;;;;30.00;6.00;;;;;;;2.97;70.13;99121.45;1330560;92;23315;-88
2021/11/30 17:41:13;;;;;;;7.70;5.40;;;;;;;2.99;70.37;99105.14;1331677;92;22097;-89
2021/11/30 17:43:41;;;;;;;9.10;6.47;;;;;;;2.97;70.17;99111.00;1325542;92;22108;-87
2021/11/30 17:46:09;;;;;;;11.30;6.70;;;;;;;2.99;70.24;99107.75;1306605;94;23013;-87
2021/11/30 17:48:38;;;;;;;10.70;6.87;;;;;;;2.96;70.50;99113.24;1315515;93;22234;-87
2021/11/30 17:51:11;;;;;;;11.67;7.17;;;;;;;2.99;70.20;99112.98;1300592;95;22315;-86
2021/11/30 17:53:38;;;;;;;7.50;5.53;;;;;;;3.00;70.22;99098.15;1300906;95;22318;-88
2021/11/30 17:56:06;;;;;;;9.80;5.70;;;;;;;3.00;70.22;99098.15;1299990;95;23828;-86
2021/11/30 17:58:35;;;;;;;8.53;5.77;;;;;;;3.00;70.09;99101.59;1297513;95;22121;-87
2021/11/30 18:01:03;;;;;;;9.87;6.07;;;;;;;2.94;69.78;99086.44;1297864;93;22302;-86
2021/11/30 18:03:33;;;;;;;7.20;4.50;;;;;;;2.96;69.54;99110.63;1317692;92;22118;-88
2021/11/30 18:06:03;;;;;;;8.57;5.50;;;;;;;2.96;69.67;99085.80;1332789;91;22029;-88
2021/11/30 18:08:30;;;;;;;10.90;5.87;;;;;;;2.90;69.43;99061.50;1336575;92;23924;-88
2021/11/30 18:11:00;;;;;;;13.93;7.20;;;;;;;2.91;69.13;99073.63;1328783;92;23060;-87
2021/11/30 18:13:28;;;;;;;8.03;5.67;;;;;;;2.91;69.13;99073.63;1335880;92;23229;-88
2021/11/30 18:15:56;;;;;;;8.90;5.43;;;;;;;2.94;68.54;99078.59;1324402;92;22065;-88
2021/11/30 18:18:23;;;;;;;8.23;5.97;;;;;;;2.94;68.14;99075.98;1325654;92;22088;-87
2021/11/30 18:20:53;;;;;;;8.27;5.83;;;;;;;2.96;67.51;99067.98;1332737;92;23241;-85
2021/11/30 18:23:20;;;;;;;6.93;4.90;;;;;;;2.91;67.64;99060.56;1336537;92;22125;-88
2021/11/30 18:25:47;;;;;;;9.57;5.93;;;;;;;2.96;68.04;99071.42;1324784;92;23020;-87
2021/11/30 18:28:14;;;;;;;10.37;5.73;;;;;;;2.87;68.41;99059.16;1319946;92;22178;-87
2021/11/30 18:30:41;;;;;;;10.37;6.13;;;;;;;2.87;68.41;99059.16;1323110;92;22111;-87
2021/11/30 18:33:09;;;;;;;6.77;4.40;;;;;;;2.93;68.68;99063.85;1329845;92;22096;-88
2021/11/30 18:35:36;;;;;;;9.80;5.07;;;;;;;2.85;67.53;99063.22;1320742;92;22055;-89
2021/11/30 18:38:03;;;;;;;14.83;5.93;;;;;;;2.89;67.72;99082.89;1317151;93;22185;-84
2021/11/30 18:40:31;;;;;;;9.70;4.97;;;;;;;2.91;66.45;99066.61;1320487;92;22079;-87
2021/11/30 18:42:59;;;;;;;13.10;6.33;;;;;;;2.95;66.24;99067.17;1322889;93;22096;-86
2021/11/30 18:45:28;;;;;;;8.93;5.83;;;;;;;2.95;66.24;99067.17;1297114;94;23632;-86
2021/11/30 18:47:56;;;;;;;8.77;5.97;;;;;;;2.97;65.83;99078.33;1299478;95;22020;-86
2021/11/30 18:50:26;;;;;;;10.57;4.57;;;;;;;3.01;66.24;99067.94;1299914;93;22256;-87
2021/11/30 18:52:53;;;;;;;7.53;4.27;;;;;;;2.98;65.65;99068.21;1302224;92;22101;-87
2021/11/30 18:55:20;;;;;;;8.47;4.40;;;;;;;2.93;66.36;99061.23;1313232;93;22122;-88
2021/11/30 18:57:48;;;;;;;6.77;4.93;;;;;;;2.90;67.31;99054.48;1307980;92;22144;-87
2021/11/30 19:00:17;;;;;;;9.00;5.03;;;;;;;2.90;67.71;99069.34;1311523;93;22095;-86
2021/11/30 19:02:46;;;;;;;9.00;6.20;;;;;;;2.82;67.51;99044.34;1316463;93;22184;-87
2021/11/30 19:05:14;;;;;;;8.13;4.40;;;;;;;2.86;67.87;99049.67;1322764;93;22302;-85
2021/11/30 19:07:42;;;;;;;7.57;4.73;;;;;;;2.79;67.22;99041.55;1316597;92;22141;-87
2021/11/30 19:10:09;;;;;;;10.57;5.17;;;;;;;2.78;66.82;99037.26;1329807;92;23092;-89
2021/11/30 19:12:36;;;;;;;13.93;6.50;;;;;;;2.82;67.33;99035.20;1330891;92;22073;-88
2021/11/30 19:15:04;;;;;;;10.63;7.13;;;;;;;2.71;68.73;99044.80;1330604;92;23122;-85
2021/11/30 19:17:32;;;;;;;10.87;5.77;;;;;;;2.67;69.32;99021.19;1329294;92;21844;-84
2021/11/30 19:19:59;;;;;;;7.80;5.20;;;;;;;2.59;70.42;99030.19;1332457;92;21904;-87
2021/11/30 19:22:27;;;;;;;9.07;4.90;;;;;;;2.59;70.42;99030.19;1334622;91;22937;-87
2021/11/30 19:24:54;;;;;;;16.87;9.70;;;;;;;2.54;70.77;99028.44;1330139;92;22353;-86
2021/11/30 19:27:22;;;;;;;17.17;10.40;;;;;;;2.51;71.33;99023.03;1329087;92;21874;-85
2021/11/30 19:29:49;;;;;;;10.10;6.60;;;;;;;2.46;71.73;99023.03;1332357;91;22129;-85
2021/11/30 19:32:16;;;;;;;8.63;5.17;;;;;;;2.45;72.14;99039.67;1330651;92;21766;-84
2021/11/30 19:34:44;;;;;;;6.63;4.17;;;;;;;2.34;71.59;99016.25;1328773;92;21858;-87
2021/11/30 19:37:17;;;;;;;11.07;5.90;;;;;;;2.34;71.59;99016.25;1320855;92;22993;-87
2021/11/30 19:39:40;;;;;;;12.77;5.80;;;;;;;2.39;70.44;99028.45;1329166;92;21746;-89
2021/11/30 19:42:07;;;;;;;8.37;5.83;;;;;;;2.39;70.44;99028.45;1324607;91;23268;-85
2021/11/30 19:44:39;;;;;;;9.40;5.70;;;;;;;2.49;69.75;99038.44;1322690;92;22195;-87
2021/11/30 19:47:04;;;;;;;11.63;5.70;;;;;;;2.53;69.58;99028.07;1316180;92;22269;-89
2021/11/30 19:49:32;;;;;;;8.27;5.37;;;;;;;2.58;68.89;99012.02;1322423;92;22831;-90
2021/11/30 19:52:01;;;;;;;12.17;6.47;;;;;;;2.58;68.89;99012.02;1320315;92;21816;-86
2021/11/30 19:54:29;;;;;;;8.30;5.90;;;;;;;2.66;69.23;99049.59;1314587;92;21952;-87
2021/11/30 19:56:57;;;;;;;9.47;6.20;;;;;;;2.65;69.92;99034.88;1328227;92;21855;-88
2021/11/30 19:59:29;;;;;;;8.27;5.10;;;;;;;2.65;69.92;99034.88;1322541;91;22930;-86
2021/11/30 20:07:29;;;;;;;14.17;6.33;;;;;;;2.61;70.43;99014.37;1328249;94;21939;-89
2021/11/30 20:09:58;;;;;;;13.27;7.90;;;;;;;2.56;70.54;99014.78;1316384;93;21940;-88
2021/11/30 20:12:25;;;;;;;10.77;6.60;;;;;;;2.62;70.67;99023.39;1316166;93;23101;-89
2021/11/30 20:14:56;;;;;;;8.93;5.50;;;;;;;2.61;70.67;99016.49;1312522;94;23195;-85
2021/11/30 20:17:23;;;;;;;11.57;6.40;;;;;;;2.67;70.44;99000.77;1317117;94;22071;-89
2021/11/30 20:19:50;;;;;;;9.20;5.67;;;;;;;2.69;70.77;99009.31;1314675;93;23096;-87
2021/11/30 20:22:18;;;;;;;11.23;7.23;;;;;;;2.69;70.77;99009.31;1317502;92;22145;-90
2021/11/30 20:24:45;;;;;;;13.90;6.00;;;;;;;2.67;71.10;98993.76;1326156;92;21823;-88
2021/11/30 20:27:12;;;;;;;9.67;5.93;;;;;;;2.67;71.10;98993.76;1339833;91;22060;-89
2021/11/30 20:29:41;;;;;;;13.10;7.03;;;;;;;2.67;71.59;98978.57;1328728;92;21844;-91
2021/11/30 20:32:08;;;;;;;10.87;6.30;;;;;;;2.67;71.59;98978.57;1335665;92;22672;-88
2021/11/30 20:34:36;;;;;;;18.73;8.70;;;;;;;2.65;71.64;98985.25;1321957;94;21786;-88
2021/11/30 20:39:49;;;;;;;12.77;7.23;;;;;;;2.63;72.23;98971.48;1335375;92;22806;-88
2021/11/30 20:42:16;;;;;;;11.70;6.33;;;;;;;2.58;72.53;98995.86;1326205;92;21962;-87
2021/11/30 20:44:43;;;;;;;9.70;5.17;;;;;;;2.58;72.53;98995.86;1323417;92;21786;-89
2021/11/30 20:47:11;;;;;;;11.57;6.47;;;;;;;2.59;72.57;98992.77;1330631;92;21839;-86
2021/11/30 20:49:39;;;;;;;12.23;5.60;;;;;;;2.61;72.68;98977.80;1315169;92;22726;-92
2021/11/30 20:52:09;;;;;;;10.77;6.60;;;;;;;2.60;72.91;98995.26;1321240;92;22820;-88
2021/11/30 20:54:40;;;;;;;10.97;6.67;;;;;;;2.60;73.29;98999.66;1335876;92;22953;-89
2021/11/30 20:57:07;;;;;;;10.63;6.20;;;;;;;2.60;73.46;98999.18;1323508;92;21830;-88
2021/11/30 20:59:34;;;;;;;12.67;7.47;;;;;;;2.57;73.74;99007.62;1294748;95;23308;-88
2021/11/30 21:04:50;;;;;;;11.80;7.13;;;;;;;2.59;74.18;99009.29;1337899;92;22429;-88
2021/11/30 21:07:17;;;;;;;10.90;6.23;;;;;;;2.64;74.56;98999.25;1336521;92;21907;-91
2021/11/30 21:09:44;;;;;;;8.73;5.63;;;;;;;2.61;74.70;99003.43;1328561;92;21797;-89
2021/11/30 21:12:12;;;;;;;10.70;6.03;;;;;;;2.61;74.70;99006.82;1336104;91;23506;-89
2021/11/30 21:14:39;;;;;;;9.03;6.00;;;;;;;2.67;74.81;99006.82;1328462;92;22411;-87
2021/11/30 21:17:06;;;;;;;7.20;5.20;;;;;;;2.66;74.66;99013.02;1321937;93;22834;-89
2021/11/30 21:19:34;;;;;;;10.67;6.17;;;;;;;2.65;74.74;98996.19;1318870;93;22790;-88
2021/11/30 21:22:11;;;;;;;10.23;6.30;;;;;;;2.66;74.90;99019.55;1330858;92;22441;-88
2021/11/30 21:24:38;;;;;;;13.27;7.07;;;;;;;2.64;75.20;99008.88;1319354;93;21869;-89
2021/11/30 21:27:13;;;;;;;11.70;5.60;;;;;;;2.65;75.46;99008.77;1323521;92;21919;-87
2021/11/30 21:29:40;;;;;;;9.27;6.07;;;;;;;2.67;75.61;99004.70;1322148;93;21831;-91
2021/11/30 21:32:09;;;;;;;19.67;9.40;;;;;;;2.61;75.97;98985.63;1316535;93;23016;-87
2021/11/30 21:34:39;;;;;;;9.43;5.57;;;;;;;2.64;76.53;98995.81;1316019;93;23616;-87
2021/11/30 21:37:07;;;;;;;13.80;6.40;;;;;;;2.64;76.53;98995.81;1316290;93;21876;-90
2021/11/30 21:39:36;;;;;;;11.30;7.13;;;;;;;2.66;77.07;98986.89;1323381;93;22207;-90
2021/11/30 21:42:04;;;;;;;18.80;9.23;;;;;;;2.65;77.49;98993.09;1318748;93;21890;-88
2021/11/30 21:44:35;;;;;;;10.93;5.80;;;;;;;2.65;77.67;98986.55;1317554;93;21904;-86
2021/11/30 21:47:03;;;;;;;12.47;7.03;;;;;;;2.65;77.67;98986.55;1323437;93;23055;-86
2021/11/30 21:49:30;;;;;;;8.77;6.00;;;;;;;2.68;78.13;98984.98;1313174;92;21337;-88
2021/11/30 21:51:57;;;;;;;6.53;3.80;;;;;;;2.63;78.71;98975.41;1316132;93;23999;-86
2021/11/30 21:54:24;;;;;;;10.27;6.17;;;;;;;2.63;78.93;98973.27;1318723;93;22137;-87
2021/11/30 21:56:52;;;;;;;9.03;5.60;;;;;;;2.63;78.93;98973.27;1324960;93;22062;-87
2021/11/30 21:59:19;;;;;;;10.33;6.17;;;;;;;2.67;78.73;98985.10;1321285;93;22879;-86
2021/11/30 22:01:55;;;;;;;10.27;6.00;;;;;;;2.67;79.21;98975.95;1308318;93;22957;-88
2021/11/30 22:04:22;;;;;;;8.00;4.73;;;;;;;2.58;80.52;98963.70;1321166;93;21865;-86
2021/11/30 22:06:56;;;;;;;7.63;4.70;;;;;;;2.58;80.52;98963.70;1301139;93;23047;-88
2021/11/30 22:09:23;;;;;;;9.73;4.50;;;;;;;2.49;82.10;98983.59;1317776;93;21972;-89
2021/11/30 22:11:51;;;;;;;10.17;2.93;;;;;;;2.54;81.90;98972.28;1314134;93;22152;-89